createdAt,value
2024-01-28T00:04:18.731Z,3.08
2024-01-28T00:09:20.943Z,3.08
2024-01-28T00:14:25.815Z,3.05
2024-01-28T00:19:28.334Z,3.00
2024-01-28T00:24:34.203Z,2.96
2024-01-28T00:29:36.599Z,2.89
2024-01-28T00:35:02.123Z,2.78
2024-01-28T00:40:43.375Z,2.69
2024-01-28T00:46:08.427Z,2.62
2024-01-28T00:51:10.449Z,2.58
2024-01-28T00:56:16.799Z,2.53
2024-01-28T01:01:37.883Z,2.46
2024-01-28T01:06:46.848Z,2.41
2024-01-28T01:11:49.210Z,2.35
2024-01-28T01:16:51.419Z,2.30
2024-01-28T01:21:57.650Z,2.26
2024-01-28T01:26:59.901Z,2.22
2024-01-28T01:32:17.572Z,2.18
2024-01-28T01:37:22.341Z,2.12
2024-01-28T01:42:24.254Z,2.09
2024-01-28T01:47:33.335Z,2.07
2024-01-28T01:52:45.896Z,2.01
2024-01-28T01:58:09.927Z,1.98
2024-01-28T02:03:13.213Z,1.96
2024-01-28T02:09:16.164Z,1.98
2024-01-28T02:14:46.684Z,2.02
2024-01-28T02:19:51.065Z,2.07
2024-01-28T02:24:55.886Z,2.13
2024-01-28T02:30:19.934Z,2.20
2024-01-28T02:35:35.020Z,2.28
2024-01-28T02:40:49.821Z,2.36
2024-01-28T02:45:52.123Z,2.43
2024-01-28T02:50:54.094Z,2.50
2024-01-28T02:56:00.314Z,2.57
2024-01-28T03:01:13.010Z,2.63
2024-01-28T03:06:17.733Z,2.69
2024-01-28T03:11:21.884Z,2.75
2024-01-28T03:16:23.544Z,2.81
2024-01-28T03:21:25.710Z,2.84
2024-01-28T03:26:32.488Z,2.87
2024-01-28T03:31:41.215Z,2.90
2024-01-28T03:36:43.313Z,2.91
2024-01-28T03:41:58.780Z,2.94
2024-01-28T03:47:00.868Z,2.96
2024-01-28T03:52:03.247Z,2.99
2024-01-28T03:57:07.916Z,3.05
2024-01-28T04:02:10.260Z,3.07
2024-01-28T04:07:12.448Z,3.10
2024-01-28T04:12:34.834Z,3.14
2024-01-28T04:17:52.216Z,3.16
2024-01-28T04:23:06.264Z,3.22
2024-01-28T04:28:08.351Z,3.25
2024-01-28T04:33:30.700Z,3.24
2024-01-28T04:38:41.691Z,3.25
2024-01-28T04:44:06.977Z,3.26
2024-01-28T04:49:11.830Z,3.29
2024-01-28T04:54:17.940Z,3.31
2024-01-28T04:59:30.388Z,3.32
2024-01-28T05:04:53.784Z,3.33
2024-01-28T05:10:09.623Z,3.33
2024-01-28T05:15:24.628Z,3.34
2024-01-28T05:20:34.165Z,3.36
2024-01-28T05:25:38.610Z,3.36
2024-01-28T05:30:43.590Z,3.38
2024-01-28T05:35:45.990Z,3.40
2024-01-28T05:40:53.527Z,3.40
2024-01-28T05:45:55.760Z,3.41
2024-01-28T05:51:00.919Z,3.43
2024-01-28T05:56:19.895Z,3.44
2024-01-28T06:01:38.321Z,3.44
2024-01-28T06:07:01.120Z,3.45
2024-01-28T06:12:06.107Z,3.47
2024-01-28T06:17:11.219Z,3.49
2024-01-28T06:22:16.948Z,3.50
2024-01-28T06:27:19.634Z,3.50
2024-01-28T06:32:25.642Z,3.51
2024-01-28T06:37:27.913Z,3.52
2024-01-28T06:42:32.858Z,3.52
2024-01-28T06:47:35.373Z,3.54
2024-01-28T06:52:39.694Z,3.55
2024-01-28T06:57:41.759Z,3.56
2024-01-28T07:02:48.069Z,3.58
2024-01-28T07:07:53.135Z,3.60
2024-01-28T07:12:59.188Z,3.61
2024-01-28T07:18:03.787Z,3.63
2024-01-28T07:23:16.474Z,3.64
2024-01-28T07:28:18.554Z,3.66
2024-01-28T07:33:21.011Z,3.68
2024-01-28T07:38:23.307Z,3.72
2024-01-28T07:43:28.366Z,3.74
2024-01-28T07:48:33.138Z,3.78
2024-01-28T07:53:35.239Z,3.85
2024-01-28T07:58:40.281Z,3.88
2024-01-28T08:03:42.299Z,3.95
2024-01-28T08:08:44.663Z,4.02
2024-01-28T08:13:48.918Z,4.10
2024-01-28T08:18:51.193Z,4.15
2024-01-28T08:23:53.222Z,4.24
2024-01-28T08:28:55.670Z,4.35
2024-01-28T08:33:57.633Z,4.42
2024-01-28T08:38:59.856Z,4.49
2024-01-28T08:44:02.015Z,4.55
2024-01-28T08:49:04.179Z,4.63
2024-01-28T08:54:06.340Z,4.73
2024-01-28T08:59:08.648Z,4.82
2024-01-28T09:04:16.433Z,4.88
2024-01-28T09:09:18.536Z,4.98
2024-01-28T09:14:20.698Z,5.03
2024-01-28T09:19:27.655Z,5.06
2024-01-28T09:24:29.938Z,5.16
2024-01-28T09:29:32.258Z,5.31
2024-01-28T09:34:34.621Z,5.41
2024-01-28T09:39:36.758Z,5.44
2024-01-28T09:44:41.133Z,5.39
2024-01-28T09:49:43.864Z,5.38
2024-01-28T09:54:53.218Z,5.38
2024-01-28T09:59:55.928Z,5.39
2024-01-28T10:05:11.716Z,5.42
2024-01-28T10:10:34.318Z,5.40
2024-01-28T10:15:36.696Z,5.43
2024-01-28T10:20:38.955Z,5.43
2024-01-28T10:25:41.529Z,5.48
2024-01-28T10:30:43.713Z,5.55
2024-01-28T10:35:46.646Z,5.60
2024-01-28T10:40:50.983Z,5.62
2024-01-28T10:45:56.591Z,5.63
2024-01-28T10:51:00.898Z,5.64
2024-01-28T10:56:04.262Z,5.66
2024-01-28T11:01:07.913Z,5.73
2024-01-28T11:06:10.246Z,5.79
2024-01-28T11:11:16.379Z,5.83
2024-01-28T11:16:20.172Z,5.88
2024-01-28T11:21:22.455Z,5.95
2024-01-28T11:26:28.118Z,5.97
2024-01-28T11:31:32.476Z,5.99
2024-01-28T11:36:39.294Z,5.99
2024-01-28T11:41:43.683Z,6.01
2024-01-28T11:46:52.634Z,6.02
2024-01-28T11:51:54.698Z,6.02
2024-01-28T11:56:56.822Z,6.05
2024-01-28T12:01:59.044Z,6.05
2024-01-28T12:07:01.443Z,6.01
2024-01-28T12:12:15.189Z,6.04
2024-01-28T12:17:17.862Z,6.03
2024-01-28T12:22:21.263Z,6.07
2024-01-28T12:27:23.730Z,6.04
2024-01-28T12:32:26.297Z,6.02
2024-01-28T12:37:28.531Z,6.03
2024-01-28T12:42:31.341Z,6.02
2024-01-28T12:47:36.828Z,5.99
2024-01-28T12:52:39.244Z,6.01
2024-01-28T12:57:42.908Z,6.03
2024-01-28T13:08:24.054Z,6.13
2024-01-28T13:15:16.859Z,6.21
2024-01-28T13:20:47.005Z,6.26
2024-01-28T13:32:29.655Z,6.24
2024-01-28T13:37:40.020Z,6.20
2024-01-28T13:43:45.268Z,6.16
2024-01-28T13:49:13.898Z,6.10
2024-01-28T13:54:27.559Z,6.02
2024-01-28T13:59:45.883Z,5.99
2024-01-28T14:05:02.700Z,5.97
2024-01-28T14:10:22.148Z,5.96
2024-01-28T14:15:29.908Z,5.96
2024-01-28T14:20:32.377Z,5.94
2024-01-28T14:25:37.540Z,5.94
2024-01-28T14:30:40.214Z,5.91
2024-01-28T14:35:44.530Z,5.87
2024-01-28T14:40:46.842Z,5.86
2024-01-28T14:45:49.455Z,5.87
2024-01-28T14:50:51.726Z,5.85
2024-01-28T14:55:55.961Z,5.84
2024-01-28T15:00:58.225Z,5.83
2024-01-28T15:06:10.556Z,5.83
2024-01-28T15:11:15.327Z,5.80
2024-01-28T15:16:20.510Z,5.77
2024-01-28T15:22:02.993Z,5.74
2024-01-28T15:27:06.798Z,5.71
2024-01-28T15:32:08.775Z,5.69
2024-01-28T15:37:10.916Z,5.68
2024-01-28T15:42:13.632Z,5.67
2024-01-28T15:47:16.173Z,5.61
2024-01-28T15:52:18.220Z,5.55
2024-01-28T15:57:20.373Z,5.56
2024-01-28T16:02:22.394Z,5.58
2024-01-28T16:07:26.302Z,5.59
2024-01-28T16:12:35.600Z,5.55
2024-01-28T16:17:37.648Z,5.52
2024-01-28T16:22:41.972Z,5.41
2024-01-28T16:27:44.432Z,5.39
2024-01-28T16:32:46.807Z,5.40
2024-01-28T16:37:50.645Z,5.42
2024-01-28T16:43:04.229Z,5.36
2024-01-28T16:48:33.066Z,5.40
2024-01-28T16:53:59.367Z,5.40
2024-01-28T16:59:10.347Z,5.37
2024-01-28T17:04:12.436Z,5.33
2024-01-28T17:09:14.401Z,5.31
2024-01-28T17:14:17.619Z,5.29
2024-01-28T17:19:19.876Z,5.29
2024-01-28T17:24:27.533Z,5.33
2024-01-28T17:29:32.859Z,5.33
2024-01-28T17:34:35.354Z,5.34
2024-01-28T17:39:40.305Z,5.37
2024-01-28T17:44:42.241Z,5.39
2024-01-28T17:49:51.745Z,5.36
2024-01-28T17:55:13.856Z,5.39
2024-01-28T18:00:18.678Z,5.39
2024-01-28T18:05:52.677Z,5.36
2024-01-28T18:11:37.585Z,5.30
2024-01-28T18:16:45.222Z,5.24
2024-01-28T18:21:56.853Z,5.26
2024-01-28T18:27:28.049Z,5.24
2024-01-28T18:32:41.272Z,5.19
2024-01-28T18:37:43.195Z,5.18
2024-01-28T18:42:47.933Z,5.16
2024-01-28T18:47:56.903Z,5.17
2024-01-28T18:53:01.899Z,5.19
2024-01-28T18:58:12.180Z,5.16
2024-01-28T19:03:17.707Z,5.17
2024-01-28T19:08:23.200Z,5.14
2024-01-28T19:13:25.994Z,5.19
2024-01-28T19:18:53.928Z,5.23
2024-01-28T19:23:56.358Z,5.24
2024-01-28T19:29:09.089Z,5.23
2024-01-28T19:34:17.769Z,5.18
2024-01-28T19:39:24.429Z,5.17
2024-01-28T19:44:30.001Z,5.15
2024-01-28T19:49:33.359Z,5.10
2024-01-28T19:54:35.697Z,5.08
2024-01-28T19:59:49.168Z,5.04
2024-01-28T20:05:09.156Z,5.06
2024-01-28T20:10:19.208Z,5.10
2024-01-28T20:15:23.285Z,5.06
2024-01-28T20:20:27.767Z,5.10
2024-01-28T20:25:32.955Z,5.04
2024-01-28T20:30:37.797Z,5.06
2024-01-28T20:35:40.046Z,5.06
2024-01-28T20:41:02.180Z,5.06
2024-01-28T20:46:04.701Z,5.03
2024-01-28T20:51:09.717Z,5.05
2024-01-28T20:56:22.195Z,5.04
2024-01-28T21:01:35.086Z,4.99
2024-01-28T21:06:37.332Z,5.00
2024-01-28T21:11:41.557Z,4.96
2024-01-28T21:16:58.417Z,4.91
2024-01-28T21:22:19.620Z,4.93
2024-01-28T21:27:24.072Z,4.91
2024-01-28T21:32:29.378Z,4.87
2024-01-28T21:37:34.455Z,4.91
2024-01-28T21:42:47.833Z,4.98
2024-01-28T21:47:52.406Z,4.96
2024-01-28T21:52:54.574Z,4.92
2024-01-28T21:57:56.884Z,4.95
2024-01-28T22:03:03.797Z,4.94
2024-01-28T22:08:20.593Z,4.87
2024-01-28T22:13:28.511Z,4.90
2024-01-28T22:18:38.602Z,4.97
2024-01-28T22:23:43.128Z,4.96
2024-01-28T22:28:46.451Z,4.87
2024-01-28T22:33:51.151Z,4.84
2024-01-28T22:38:53.141Z,4.85
2024-01-28T22:43:58.635Z,4.87
2024-01-28T22:49:10.105Z,4.88
2024-01-28T22:54:14.936Z,4.90
2024-01-28T22:59:19.493Z,4.88
2024-01-28T23:04:47.667Z,4.85
2024-01-28T23:09:49.895Z,4.86
2024-01-28T23:14:52.687Z,4.90
2024-01-28T23:20:17.179Z,4.88
2024-01-28T23:25:19.311Z,4.85
2024-01-28T23:30:23.903Z,4.85
2024-01-28T23:35:28.552Z,4.83
2024-01-28T23:40:30.795Z,4.80
2024-01-28T23:45:33.368Z,4.80
2024-01-28T23:51:11.767Z,4.79
2024-01-28T23:56:15.963Z,4.76
